Time;durP1;ratioP1;P1;durP2;ratioP2;P2;SDS_P1;SDS_P2;PMS_P1;PMS_P2;Temp;Humidity;BMP_temperature;BMP_pressure;BME280_temperature;BME280_humidity;BME280_pressure;Samples;Min_cycle;Max_cycle;Signal;HPM_P1;HPM_P2
2022/11/08 00:02:18;;;;;;;4.17;3.50;;;11.40;99.90;;;;;;5057235;28;20569;-76
2022/11/08 00:04:44;;;;;;;4.80;4.27;;;11.30;99.90;;;;;;5060842;28;20401;-76
2022/11/08 00:15:24;;;;;;;4.73;4.30;;;11.10;99.90;;;;;;5056651;28;20480;-75
2022/11/08 00:17:49;;;;;;;6.60;4.03;;;11.00;99.90;;;;;;5054802;28;20460;-75
2022/11/08 00:20:15;;;;;;;5.00;4.50;;;10.90;99.90;;;;;;5056430;28;20202;-75
2022/11/08 00:22:41;;;;;;;4.47;4.07;;;10.90;99.90;;;;;;5056505;28;20629;-75
2022/11/08 00:25:07;;;;;;;13.53;4.13;;;10.90;99.90;;;;;;5054731;28;20892;-74
2022/11/08 00:27:33;;;;;;;5.93;4.10;;;10.90;99.90;;;;;;5054554;28;20275;-75
2022/11/08 00:29:58;;;;;;;5.40;4.00;;;10.80;99.90;;;;;;5055021;28;20447;-75
2022/11/08 00:32:25;;;;;;;3.80;3.50;;;10.70;99.90;;;;;;5054736;28;20180;-75
2022/11/08 00:34:51;;;;;;;5.43;3.50;;;10.70;99.90;;;;;;5054459;28;20171;-74
2022/11/08 00:37:18;;;;;;;3.97;3.60;;;10.60;99.90;;;;;;5055203;28;20513;-75
2022/11/08 00:39:44;;;;;;;5.40;4.33;;;10.60;99.90;;;;;;5053571;28;20411;-75
2022/11/08 00:42:10;;;;;;;5.97;5.00;;;10.50;99.90;;;;;;5053840;28;20470;-75
2022/11/08 00:44:36;;;;;;;6.47;4.30;;;10.50;99.90;;;;;;5054541;28;20847;-75
2022/11/08 00:47:02;;;;;;;4.40;4.00;;;10.40;99.90;;;;;;5054421;28;20208;-75
2022/11/08 00:49:28;;;;;;;5.03;4.47;;;10.40;99.90;;;;;;5054532;28;20262;-75
2022/11/08 00:51:53;;;;;;;5.10;4.63;;;10.30;99.90;;;;;;5054537;28;20452;-75
2022/11/08 00:54:19;;;;;;;6.73;4.33;;;10.20;99.90;;;;;;5054787;28;20615;-75
2022/11/08 00:56:46;;;;;;;5.83;4.50;;;10.10;99.90;;;;;;5062694;28;20609;-75
2022/11/08 00:59:14;;;;;;;5.53;4.60;;;10.10;99.90;;;;;;5074800;28;20404;-75
2022/11/08 01:01:39;;;;;;;6.13;5.43;;;10.10;99.90;;;;;;5074913;28;20445;-75
2022/11/08 01:04:05;;;;;;;5.30;4.80;;;10.20;99.90;;;;;;5074509;28;20439;-75
2022/11/08 01:06:31;;;;;;;8.63;5.07;;;10.20;99.90;;;;;;5074085;28;20198;-75
2022/11/08 01:08:57;;;;;;;8.80;5.10;;;10.20;99.90;;;;;;5074414;28;20321;-75
2022/11/08 01:11:24;;;;;;;4.60;4.17;;;10.20;99.90;;;;;;5061245;28;20259;-75
2022/11/08 01:13:50;;;;;;;4.60;4.20;;;10.20;99.90;;;;;;5035558;28;20225;-74
2022/11/08 01:16:22;;;;;;;7.57;4.90;;;10.20;99.90;;;;;;5053381;28;20463;-74
2022/11/08 01:18:49;;;;;;;9.30;5.27;;;10.10;99.90;;;;;;5055101;28;20420;-74
2022/11/08 01:21:16;;;;;;;5.67;4.27;;;10.00;99.90;;;;;;5062420;28;20413;-74
2022/11/08 01:23:44;;;;;;;5.10;4.47;;;10.10;99.90;;;;;;5053714;28;20409;-74
2022/11/08 01:26:13;;;;;;;4.70;4.30;;;10.00;99.90;;;;;;5053234;28;20425;-74
2022/11/08 01:28:38;;;;;;;5.60;4.83;;;9.90;99.90;;;;;;5053613;28;20451;-74
2022/11/08 01:31:12;;;;;;;4.73;4.40;;;9.90;99.90;;;;;;5053173;28;20416;-74
2022/11/08 01:33:38;;;;;;;5.60;4.63;;;9.90;99.90;;;;;;5053910;28;20190;-74
2022/11/08 01:36:11;;;;;;;5.40;4.90;;;9.90;99.90;;;;;;5053385;28;20436;-75
2022/11/08 01:38:37;;;;;;;7.80;5.10;;;9.90;99.90;;;;;;5053659;28;20417;-75
2022/11/08 01:41:03;;;;;;;5.27;4.43;;;9.90;99.90;;;;;;5052222;28;20435;-75
2022/11/08 01:43:28;;;;;;;5.03;4.63;;;9.80;99.90;;;;;;5053697;28;20411;-75
2022/11/08 01:46:15;;;;;;;7.40;4.90;;;9.80;99.90;;;;;;5051312;28;20188;-75
2022/11/08 01:49:19;;;;;;;6.07;5.30;;;9.80;99.90;;;;;;5053619;28;20176;-74
2022/11/08 01:51:54;;;;;;;6.40;5.07;;;9.70;99.90;;;;;;5049678;28;20432;-74
2022/11/08 01:54:30;;;;;;;5.90;5.20;;;9.70;99.90;;;;;;5052132;28;20451;-75
2022/11/08 01:56:58;;;;;;;8.60;4.90;;;9.70;99.90;;;;;;5051306;28;20433;-74
2022/11/08 01:59:24;;;;;;;6.20;4.80;;;9.70;99.90;;;;;;5053230;28;20409;-74
2022/11/08 02:01:50;;;;;;;5.17;4.67;;;9.70;99.90;;;;;;5053365;28;20408;-74
2022/11/08 02:04:16;;;;;;;5.97;4.97;;;9.60;99.90;;;;;;5051941;28;20181;-75
2022/11/08 02:06:43;;;;;;;6.33;4.80;;;9.60;99.90;;;;;;5053230;28;20475;-74
2022/11/08 02:09:11;;;;;;;7.50;5.10;;;9.60;99.90;;;;;;5053284;28;20181;-74
2022/11/08 02:11:38;;;;;;;5.73;4.93;;;9.60;99.90;;;;;;5051366;28;20834;-74
2022/11/08 02:14:05;;;;;;;6.67;5.63;;;9.50;99.90;;;;;;5052896;28;20889;-75
2022/11/08 02:16:30;;;;;;;6.30;5.50;;;9.50;99.90;;;;;;5053001;28;20532;-75
2022/11/08 02:18:56;;;;;;;5.00;4.50;;;9.50;99.90;;;;;;5053004;28;20424;-75
2022/11/08 02:21:25;;;;;;;6.83;5.30;;;9.40;99.90;;;;;;5052879;28;20189;-75
2022/11/08 02:24:11;;;;;;;5.80;5.20;;;9.40;99.90;;;;;;5053268;28;20181;-75
2022/11/08 02:26:37;;;;;;;6.10;4.90;;;9.40;99.90;;;;;;5051339;28;20429;-74
2022/11/08 02:29:27;;;;;;;5.20;4.70;;;9.40;99.90;;;;;;5052083;28;20450;-75
2022/11/08 02:31:53;;;;;;;5.30;4.23;;;9.40;99.90;;;;;;5053206;28;20404;-75
2022/11/08 02:34:22;;;;;;;6.83;4.80;;;9.40;99.90;;;;;;5053118;28;20448;-75
2022/11/08 02:36:48;;;;;;;6.13;5.17;;;9.40;99.90;;;;;;5053029;28;20421;-75
2022/11/08 02:39:14;;;;;;;5.80;5.03;;;9.30;99.90;;;;;;5052753;28;20429;-75
2022/11/08 02:41:39;;;;;;;5.30;3.97;;;9.30;99.90;;;;;;5051471;28;20413;-75
2022/11/08 02:44:05;;;;;;;6.97;5.53;;;9.30;99.90;;;;;;5053045;28;20191;-76
2022/11/08 02:46:30;;;;;;;5.43;4.70;;;9.40;99.90;;;;;;5052816;28;20256;-74
2022/11/08 02:48:56;;;;;;;5.20;4.60;;;9.30;99.90;;;;;;5052871;28;20262;-74
2022/11/08 02:51:21;;;;;;;5.83;4.70;;;9.30;99.90;;;;;;5067479;28;20622;-75
2022/11/08 02:53:47;;;;;;;4.47;4.00;;;9.30;99.90;;;;;;5072850;28;20567;-74
2022/11/08 02:56:13;;;;;;;5.63;4.30;;;9.30;99.90;;;;;;5072137;28;20562;-74
2022/11/08 02:58:38;;;;;;;6.20;4.17;;;9.20;99.90;;;;;;5075302;28;20399;-74
2022/11/08 03:01:04;;;;;;;5.70;4.30;;;9.20;99.90;;;;;;5076379;28;20173;-74
2022/11/08 03:03:29;;;;;;;5.30;4.27;;;9.20;99.90;;;;;;5076616;28;20183;-74
2022/11/08 03:05:56;;;;;;;4.73;4.33;;;9.20;99.90;;;;;;5077153;28;20177;-74
2022/11/08 03:08:21;;;;;;;5.90;4.87;;;9.20;99.90;;;;;;5076130;28;20173;-74
2022/11/08 03:10:47;;;;;;;7.03;4.93;;;9.10;99.90;;;;;;5068542;28;20906;-74
2022/11/08 03:13:12;;;;;;;7.37;4.60;;;9.00;99.90;;;;;;5056116;28;20194;-73
2022/11/08 03:15:38;;;;;;;7.97;4.50;;;9.00;99.90;;;;;;5056276;28;20173;-74
2022/11/08 03:18:04;;;;;;;5.10;4.53;;;9.00;99.90;;;;;;5054266;23;20732;-72
2022/11/08 03:20:29;;;;;;;5.23;4.70;;;9.10;99.90;;;;;;5035107;28;20178;-70
2022/11/08 03:23:00;;;;;;;5.60;4.50;;;9.10;99.90;;;;;;5035350;28;20250;-72
2022/11/08 03:25:26;;;;;;;5.77;4.90;;;9.10;99.90;;;;;;5034703;28;20181;-71
2022/11/08 03:27:51;;;;;;;4.63;4.07;;;9.10;99.90;;;;;;5035976;28;20421;-70
2022/11/08 03:30:17;;;;;;;5.77;4.50;;;9.10;99.90;;;;;;5036281;28;20178;-72
2022/11/08 03:32:45;;;;;;;5.90;4.60;;;9.10;99.90;;;;;;5036038;28;20203;-71
2022/11/08 03:35:12;;;;;;;5.80;4.13;;;9.00;99.90;;;;;;5036399;28;20159;-72
2022/11/08 03:37:37;;;;;;;4.20;3.80;;;9.00;99.90;;;;;;5034897;28;20431;-71
2022/11/08 03:40:03;;;;;;;5.30;4.80;;;9.10;99.90;;;;;;5035672;28;20405;-71
2022/11/08 03:42:29;;;;;;;6.30;4.57;;;9.10;99.90;;;;;;5035510;28;20663;-70
2022/11/08 03:44:54;;;;;;;5.93;4.57;;;9.10;99.90;;;;;;5035878;28;20405;-72
2022/11/08 03:47:20;;;;;;;5.47;4.40;;;9.00;99.90;;;;;;5036222;28;20706;-72
2022/11/08 03:49:45;;;;;;;4.70;3.93;;;8.90;99.90;;;;;;5036200;28;20170;-72
2022/11/08 03:52:11;;;;;;;4.83;4.43;;;8.90;99.90;;;;;;5035956;28;20160;-71
2022/11/08 03:54:37;;;;;;;5.10;4.20;;;8.80;99.90;;;;;;5035702;28;20198;-70
2022/11/08 03:57:02;;;;;;;4.93;4.47;;;8.80;99.90;;;;;;5034032;28;20554;-72
2022/11/08 03:59:28;;;;;;;4.67;4.13;;;8.90;99.90;;;;;;5036248;28;20170;-71
2022/11/08 04:01:53;;;;;;;5.17;4.20;;;8.90;99.90;;;;;;5035604;28;20641;-70
2022/11/08 04:04:19;;;;;;;4.67;4.17;;;8.80;99.90;;;;;;5034316;28;20235;-72
2022/11/08 04:06:45;;;;;;;5.50;4.53;;;8.90;99.90;;;;;;5035847;28;20201;-72
2022/11/08 04:09:10;;;;;;;5.20;4.70;;;8.90;99.90;;;;;;5034224;28;20171;-71
2022/11/08 04:17:04;;;;;;;4.53;4.00;;;8.70;99.90;;;;;;5015766;28;20863;-71
2022/11/08 04:22:14;;;;;;;4.60;4.13;;;8.80;99.90;;;;;;5016553;28;20653;-72
2022/11/08 04:24:39;;;;;;;6.03;4.50;;;8.80;99.90;;;;;;5015588;28;20405;-72
2022/11/08 04:27:05;;;;;;;4.83;4.23;;;8.80;99.90;;;;;;5015369;28;20206;-72
2022/11/08 04:29:30;;;;;;;3.60;3.30;;;8.80;99.90;;;;;;5015665;28;20637;-72
2022/11/08 04:31:56;;;;;;;5.60;4.00;;;8.80;99.90;;;;;;5014025;28;20194;-72
2022/11/08 04:34:21;;;;;;;4.30;3.90;;;8.80;99.90;;;;;;5015226;28;20669;-72
2022/11/08 04:36:47;;;;;;;5.83;4.57;;;8.80;99.90;;;;;;5015284;28;20203;-71
2022/11/08 04:39:12;;;;;;;4.50;4.10;;;8.80;99.90;;;;;;5015266;28;20255;-71
2022/11/08 04:41:38;;;;;;;5.60;4.00;;;8.70;99.90;;;;;;5027797;28;20547;-70
2022/11/08 04:44:04;;;;;;;5.43;4.07;;;8.70;99.90;;;;;;5035279;28;20200;-71
2022/11/08 04:46:30;;;;;;;8.13;6.70;;;8.60;99.90;;;;;;5035261;28;20189;-71
2022/11/08 04:48:58;;;;;;;14.10;10.77;;;8.60;99.90;;;;;;5034323;28;20467;-71
2022/11/08 04:51:29;;;;;;;14.77;11.63;;;8.60;99.90;;;;;;5013778;28;20175;-71
2022/11/08 04:53:56;;;;;;;10.50;9.40;;;8.50;99.90;;;;;;5015172;28;20452;-71
2022/11/08 04:56:22;;;;;;;11.50;8.90;;;8.50;99.90;;;;;;5014355;28;20437;-71
2022/11/08 04:58:53;;;;;;;11.73;9.00;;;8.50;99.90;;;;;;5015146;28;20771;-71
2022/11/08 05:01:22;;;;;;;8.93;8.03;;;8.50;99.90;;;;;;5014813;28;20425;-71
2022/11/08 05:03:49;;;;;;;8.50;7.60;;;8.50;99.90;;;;;;5014939;28;20414;-71
2022/11/08 05:06:26;;;;;;;7.53;5.60;;;8.50;99.90;;;;;;5014866;28;20416;-71
2022/11/08 05:08:56;;;;;;;7.03;5.57;;;8.60;99.90;;;;;;5015060;28;20389;-72
2022/11/08 05:11:24;;;;;;;7.07;5.90;;;8.60;99.90;;;;;;5025085;28;20416;-71
2022/11/08 05:13:50;;;;;;;6.33;5.73;;;8.60;99.90;;;;;;5034592;28;20905;-71
2022/11/08 05:16:28;;;;;;;7.97;6.50;;;8.60;99.90;;;;;;5034403;28;20963;-71
2022/11/08 05:18:54;;;;;;;8.00;7.20;;;8.70;99.90;;;;;;5034461;28;20390;-71
2022/11/08 05:24:08;;;;;;;9.10;6.47;;;8.60;99.90;;;;;;5034420;28;20994;-71
2022/11/08 05:26:35;;;;;;;5.77;5.20;;;8.50;99.90;;;;;;5033462;28;20915;-72
2022/11/08 05:29:01;;;;;;;5.57;4.97;;;8.50;99.90;;;;;;5034064;28;20412;-71
2022/11/08 05:31:27;;;;;;;6.47;5.70;;;8.50;99.90;;;;;;5033927;28;20405;-71
2022/11/08 05:33:52;;;;;;;6.33;5.67;;;8.50;99.90;;;;;;5034140;28;20202;-71
2022/11/08 05:36:18;;;;;;;5.60;5.10;;;8.50;99.90;;;;;;5033927;28;20628;-72
2022/11/08 05:38:44;;;;;;;6.87;6.27;;;8.60;99.90;;;;;;5033849;28;20170;-71
2022/11/08 05:41:15;;;;;;;7.97;6.90;;;8.60;99.90;;;;;;5032676;28;20728;-72
2022/11/08 05:43:41;;;;;;;7.20;5.80;;;8.60;99.90;;;;;;5034036;28;20166;-71
2022/11/08 05:46:07;;;;;;;8.97;7.60;;;8.50;99.90;;;;;;5033983;28;20967;-72
2022/11/08 05:48:34;;;;;;;9.33;6.23;;;8.60;99.90;;;;;;5033675;28;20426;-72
2022/11/08 05:50:59;;;;;;;7.30;6.60;;;8.60;99.90;;;;;;5034032;28;20199;-72
2022/11/08 05:53:26;;;;;;;7.10;5.53;;;8.60;99.90;;;;;;5033684;28;20452;-72
2022/11/08 05:55:57;;;;;;;6.80;6.10;;;8.70;99.90;;;;;;5033122;28;20400;-71
2022/11/08 05:58:23;;;;;;;7.07;5.27;;;8.60;99.90;;;;;;5033747;28;20425;-72
2022/11/08 06:00:48;;;;;;;6.63;5.53;;;8.60;99.90;;;;;;5032189;28;20421;-71
2022/11/08 06:03:14;;;;;;;8.13;5.23;;;8.50;99.90;;;;;;5033636;28;20412;-72
2022/11/08 06:05:39;;;;;;;6.70;5.20;;;8.60;99.90;;;;;;5033579;28;20173;-72
2022/11/08 06:08:05;;;;;;;7.33;5.90;;;8.60;99.90;;;;;;5033262;28;20247;-73
2022/11/08 06:10:31;;;;;;;5.63;5.00;;;8.60;99.90;;;;;;5033351;28;20228;-72
2022/11/08 06:13:00;;;;;;;6.30;5.70;;;8.60;99.90;;;;;;5032795;28;20663;-72
2022/11/08 06:15:26;;;;;;;6.77;6.17;;;8.50;99.90;;;;;;5033211;28;20534;-71
2022/11/08 06:17:52;;;;;;;6.70;5.70;;;8.40;99.90;;;;;;5033134;28;20468;-71
2022/11/08 06:20:17;;;;;;;8.00;6.00;;;8.40;99.90;;;;;;5033140;28;20417;-71
2022/11/08 06:22:43;;;;;;;6.17;5.57;;;8.50;99.90;;;;;;5033142;28;20901;-70
2022/11/08 06:25:09;;;;;;;4.67;4.27;;;8.50;99.90;;;;;;5033021;28;20166;-71
2022/11/08 06:27:35;;;;;;;6.10;5.50;;;8.50;99.90;;;;;;5032774;28;20209;-71
2022/11/08 06:30:02;;;;;;;7.70;5.63;;;8.50;99.90;;;;;;5033479;28;20409;-72
2022/11/08 06:32:27;;;;;;;4.90;4.40;;;8.50;99.90;;;;;;5033684;28;20547;-71
2022/11/08 06:34:53;;;;;;;6.27;5.67;;;8.50;99.90;;;;;;5037168;28;20406;-72
2022/11/08 06:37:18;;;;;;;5.97;5.37;;;8.60;99.90;;;;;;5037262;28;20729;-71
2022/11/08 06:39:44;;;;;;;5.87;5.10;;;8.60;99.90;;;;;;5037339;28;20189;-71
2022/11/08 06:42:10;;;;;;;5.50;4.50;;;8.40;99.90;;;;;;5035891;28;20255;-72
2022/11/08 06:44:35;;;;;;;4.90;4.23;;;8.50;99.90;;;;;;5037026;28;20174;-72
2022/11/08 06:47:01;;;;;;;7.10;5.00;;;8.50;99.90;;;;;;5037038;28;20193;-72
2022/11/08 06:49:26;;;;;;;7.30;5.00;;;8.50;99.90;;;;;;5037020;28;20614;-71
2022/11/08 06:51:52;;;;;;;6.50;5.33;;;8.70;99.90;;;;;;5036880;28;20171;-70
2022/11/08 06:54:18;;;;;;;9.43;5.80;;;8.80;99.90;;;;;;5034895;28;20579;-72
2022/11/08 06:56:45;;;;;;;6.37;5.80;;;8.90;99.90;;;;;;5036209;28;20566;-71
2022/11/08 06:59:11;;;;;;;7.40;5.90;;;8.90;99.90;;;;;;5037010;28;20419;-72
2022/11/08 07:01:36;;;;;;;5.77;5.17;;;8.90;99.90;;;;;;5036894;28;20899;-72
2022/11/08 07:04:02;;;;;;;5.40;4.90;;;9.00;99.90;;;;;;5036019;28;20300;-72
2022/11/08 07:06:29;;;;;;;11.10;9.90;;;9.00;99.90;;;;;;5026917;28;20257;-71
2022/11/08 07:08:55;;;;;;;7.43;5.17;;;9.00;99.90;;;;;;5017237;28;20172;-72
2022/11/08 07:11:20;;;;;;;9.80;5.73;;;9.00;99.90;;;;;;5025309;28;20427;-70
2022/11/08 07:13:46;;;;;;;4.97;4.47;;;9.00;99.90;;;;;;5036886;28;20274;-70
2022/11/08 07:16:12;;;;;;;6.13;4.70;;;8.90;99.90;;;;;;5036805;28;20161;-70
2022/11/08 07:18:38;;;;;;;4.23;3.70;;;9.20;99.90;;;;;;5036186;28;20654;-72
2022/11/08 07:21:04;;;;;;;7.20;4.60;;;9.30;99.90;;;;;;5036563;28;20400;-72
2022/11/08 07:23:30;;;;;;;4.23;3.80;;;9.40;99.90;;;;;;5036045;28;20209;-71
2022/11/08 07:25:58;;;;;;;4.97;4.53;;;9.70;99.90;;;;;;5034570;28;20207;-72
2022/11/08 07:28:24;;;;;;;4.83;4.10;;;9.70;99.90;;;;;;5036443;28;20423;-71
2022/11/08 07:30:49;;;;;;;5.33;3.90;;;10.00;99.90;;;;;;5036404;28;20416;-72
2022/11/08 07:33:15;;;;;;;6.60;4.00;;;10.20;99.90;;;;;;5035884;28;20206;-72
2022/11/08 07:35:43;;;;;;;4.00;3.60;;;10.20;99.90;;;;;;5036064;28;20635;-71
2022/11/08 07:38:08;;;;;;;8.73;4.53;;;10.40;99.90;;;;;;5035994;28;20923;-70
2022/11/08 07:40:34;;;;;;;7.27;4.27;;;10.50;99.90;;;;;;5035190;28;20836;-70
2022/11/08 07:43:00;;;;;;;7.40;4.53;;;10.50;99.90;;;;;;5035221;28;20177;-72
2022/11/08 07:45:26;;;;;;;4.33;3.93;;;10.60;99.90;;;;;;5035919;28;20173;-71
2022/11/08 07:48:05;;;;;;;4.23;3.27;;;10.60;99.90;;;;;;5036056;28;20529;-71
2022/11/08 07:50:31;;;;;;;7.40;3.83;;;10.50;99.90;;;;;;5036189;28;20391;-72
2022/11/08 07:52:57;;;;;;;4.50;3.90;;;10.50;99.90;;;;;;5035912;28;20800;-71
2022/11/08 07:55:23;;;;;;;4.40;3.37;;;10.50;99.90;;;;;;5036025;28;20462;-72
2022/11/08 07:57:49;;;;;;;4.57;3.67;;;10.50;99.90;;;;;;5035260;28;20425;-71
2022/11/08 08:00:15;;;;;;;3.53;3.23;;;10.50;99.90;;;;;;5035967;28;20408;-72
2022/11/08 08:02:41;;;;;;;6.73;4.00;;;10.60;99.90;;;;;;5035593;28;20164;-72
2022/11/08 08:05:07;;;;;;;3.20;2.90;;;10.70;99.90;;;;;;5034360;28;20417;-72
2022/11/08 08:07:35;;;;;;;6.83;4.03;;;10.70;99.90;;;;;;5035365;28;20665;-72
2022/11/08 08:10:00;;;;;;;6.70;4.27;;;10.80;99.90;;;;;;5035423;28;20433;-70
2022/11/08 08:12:26;;;;;;;4.83;3.63;;;10.70;99.90;;;;;;5035098;28;20928;-72
2022/11/08 08:14:51;;;;;;;4.23;3.83;;;11.00;99.90;;;;;;5035842;28;20211;-70
2022/11/08 08:17:17;;;;;;;5.40;4.90;;;11.20;99.90;;;;;;5035275;28;20207;-71
2022/11/08 08:19:42;;;;;;;4.27;3.87;;;11.40;99.90;;;;;;5035282;28;20161;-71
2022/11/08 08:22:08;;;;;;;5.10;4.40;;;11.40;99.90;;;;;;5035147;28;20179;-70
2022/11/08 08:24:34;;;;;;;4.90;3.47;;;11.30;99.90;;;;;;5033966;28;20176;-71
2022/11/08 08:26:59;;;;;;;4.87;4.27;;;11.30;99.90;;;;;;5034443;28;20229;-72
2022/11/08 08:29:25;;;;;;;6.00;3.83;;;11.30;99.90;;;;;;5035341;28;20169;-72
2022/11/08 08:31:50;;;;;;;4.30;3.90;;;11.60;99.90;;;;;;5035266;28;20175;-72
2022/11/08 08:34:16;;;;;;;4.30;2.90;;;11.60;99.90;;;;;;5034817;28;20192;-72
2022/11/08 08:36:42;;;;;;;6.07;3.53;;;11.80;99.90;;;;;;5035175;28;20270;-72
2022/11/08 08:39:08;;;;;;;6.30;4.03;;;12.20;99.90;;;;;;5034879;28;20769;-71
2022/11/08 08:41:34;;;;;;;4.07;3.67;;;12.20;99.90;;;;;;5033784;28;20458;-72
2022/11/08 08:43:59;;;;;;;4.70;3.47;;;12.10;99.90;;;;;;5035287;28;20699;-71
2022/11/08 08:46:25;;;;;;;4.90;3.90;;;12.40;99.90;;;;;;5035122;28;21734;-70
2022/11/08 08:48:50;;;;;;;4.83;3.40;;;12.80;99.90;;;;;;5034644;28;20581;-72
2022/11/08 08:51:16;;;;;;;7.33;4.10;;;13.10;99.90;;;;;;5034800;28;20571;-72
2022/11/08 08:53:41;;;;;;;4.13;3.60;;;13.20;99.90;;;;;;5034596;28;20695;-71
2022/11/08 08:56:07;;;;;;;6.33;3.80;;;13.40;99.90;;;;;;5033850;28;20181;-72
2022/11/08 08:58:33;;;;;;;6.37;3.53;;;13.60;99.90;;;;;;5034569;28;20170;-72
2022/11/08 09:01:00;;;;;;;4.60;3.23;;;13.60;99.90;;;;;;5034149;28;20395;-71
2022/11/08 09:03:26;;;;;;;6.93;3.67;;;13.80;99.90;;;;;;5033549;28;20170;-72
2022/11/08 09:05:52;;;;;;;4.40;3.20;;;13.90;99.90;;;;;;5034536;28;20402;-71
2022/11/08 09:08:17;;;;;;;3.40;2.53;;;13.80;99.90;;;;;;5034530;28;20194;-71
2022/11/08 09:10:43;;;;;;;3.17;2.77;;;13.70;99.90;;;;;;5034378;28;20177;-72
2022/11/08 09:13:08;;;;;;;4.13;3.30;;;13.80;99.90;;;;;;5033844;28;20537;-72
2022/11/08 09:15:34;;;;;;;4.77;2.83;;;14.00;99.90;;;;;;5034657;28;20175;-71
2022/11/08 09:18:00;;;;;;;5.23;3.33;;;14.10;99.90;;;;;;5034685;28;20263;-71
2022/11/08 09:20:25;;;;;;;3.67;3.07;;;14.20;99.90;;;;;;5034227;28;20259;-72
2022/11/08 09:22:51;;;;;;;3.60;3.00;;;14.30;99.90;;;;;;5034130;28;20237;-72
2022/11/08 09:25:17;;;;;;;7.97;3.37;;;14.50;99.90;;;;;;5034368;28;20178;-71
2022/11/08 09:27:42;;;;;;;4.50;3.40;;;14.50;99.90;;;;;;5033353;28;20305;-71
2022/11/08 09:30:08;;;;;;;4.47;3.33;;;14.50;99.90;;;;;;5033871;28;20409;-71
2022/11/08 09:32:34;;;;;;;2.80;2.57;;;14.40;99.90;;;;;;5033914;28;20552;-71
2022/11/08 09:34:59;;;;;;;2.33;2.10;;;14.40;99.90;;;;;;5033805;28;20399;-71
2022/11/08 09:37:25;;;;;;;8.63;2.30;;;14.50;99.90;;;;;;5034072;28;20680;-72
2022/11/08 09:39:51;;;;;;;2.20;1.77;;;14.50;99.90;;;;;;5033594;28;20300;-72
2022/11/08 09:42:45;;;;;;;4.23;1.80;;;14.60;99.90;;;;;;5033018;28;20674;-71
2022/11/08 09:45:25;;;;;;;2.33;1.90;;;14.60;99.90;;;;;;5033792;28;20224;-72
2022/11/08 09:47:57;;;;;;;4.37;2.07;;;14.90;99.90;;;;;;5033495;28;20562;-72
2022/11/08 09:50:40;;;;;;;1.93;1.70;;;15.20;99.90;;;;;;5033844;28;20390;-72
2022/11/08 09:53:44;;;;;;;4.33;2.70;;;15.50;99.90;;;;;;5033541;28;20455;-71
2022/11/08 09:56:29;;;;;;;3.43;2.33;;;15.80;99.90;;;;;;5033022;28;20420;-72
2022/11/08 09:59:12;;;;;;;5.17;2.50;;;16.10;99.90;;;;;;5021666;28;20414;-72
2022/11/08 10:01:38;;;;;;;3.07;2.50;;;16.30;99.90;;;;;;5033313;28;20752;-72
2022/11/08 10:04:15;;;;;;;3.13;1.80;;;16.30;99.90;;;;;;5033377;28;20428;-72
2022/11/08 10:06:59;;;;;;;3.10;2.20;;;16.20;99.90;;;;;;5033110;28;20410;-72
2022/11/08 10:09:49;;;;;;;4.20;2.53;;;16.10;99.90;;;;;;5033417;28;20854;-71
2022/11/08 10:12:59;;;;;;;3.23;2.10;;;16.10;99.90;;;;;;5032960;28;20406;-72
2022/11/08 10:15:40;;;;;;;3.73;1.70;;;16.10;99.90;;;;;;5027991;28;20418;-73
2022/11/08 10:18:31;;;;;;;2.53;1.83;;;16.10;99.90;;;;;;5032974;28;20445;-71
2022/11/08 10:21:08;;;;;;;3.00;2.03;;;16.00;99.90;;;;;;5033075;28;20390;-71
2022/11/08 10:23:40;;;;;;;3.20;1.80;;;15.80;99.90;;;;;;5033046;28;20938;-71
2022/11/08 10:26:12;;;;;;;3.43;1.80;;;15.80;99.90;;;;;;5032825;28;20444;-71
2022/11/08 10:28:43;;;;;;;2.57;1.70;;;15.90;99.90;;;;;;5033036;28;20428;-71
2022/11/08 10:31:11;;;;;;;2.20;1.40;;;15.80;99.90;;;;;;5033151;28;20926;-72
2022/11/08 10:33:52;;;;;;;2.70;1.60;;;16.00;99.90;;;;;;5033079;28;20499;-71
2022/11/08 10:36:36;;;;;;;3.13;1.60;;;16.30;99.90;;;;;;5031581;28;20417;-71
2022/11/08 10:39:08;;;;;;;2.97;1.83;;;16.60;99.90;;;;;;5033192;28;20418;-71
2022/11/08 10:41:46;;;;;;;2.17;1.37;;;16.50;99.90;;;;;;5031786;28;20509;-72
2022/11/08 10:44:15;;;;;;;3.17;1.87;;;16.20;99.90;;;;;;5033045;28;20895;-71
2022/11/08 10:46:45;;;;;;;2.20;1.80;;;16.40;99.90;;;;;;5032522;28;20453;-70
2022/11/08 10:49:18;;;;;;;3.47;1.93;;;16.80;99.90;;;;;;5032752;28;20490;-72
2022/11/08 10:51:45;;;;;;;2.20;1.70;;;17.20;99.90;;;;;;5032853;28;20481;-72
2022/11/08 10:54:38;;;;;;;2.57;1.80;;;17.60;99.90;;;;;;5032588;28;20492;-71
2022/11/08 10:57:04;;;;;;;2.90;1.67;;;17.90;99.90;;;;;;5032094;28;20417;-71
2022/11/08 10:59:31;;;;;;;3.30;2.10;;;17.90;99.90;;;;;;5032580;28;20479;-71
2022/11/08 11:01:57;;;;;;;4.83;2.23;;;18.00;99.90;;;;;;5032566;28;20221;-71
2022/11/08 11:04:29;;;;;;;2.33;2.00;;;18.00;99.90;;;;;;5032438;28;20896;-71
2022/11/08 11:07:00;;;;;;;3.10;1.83;;;18.60;99.90;;;;;;5032345;28;20433;-72
2022/11/08 11:09:26;;;;;;;3.77;2.13;;;18.70;99.90;;;;;;5032517;28;20471;-72
2022/11/08 11:12:00;;;;;;;7.00;3.30;;;18.50;99.90;;;;;;5032105;28;20501;-72
2022/11/08 11:14:25;;;;;;;8.50;3.47;;;18.50;99.90;;;;;;5033069;28;20232;-73
2022/11/08 11:16:56;;;;;;;8.20;5.20;;;18.60;99.90;;;;;;5032852;28;20857;-71
2022/11/08 11:19:24;;;;;;;6.67;4.60;;;18.70;99.90;;;;;;5034914;28;20511;-72
2022/11/08 11:22:07;;;;;;;6.13;3.70;;;18.80;99.90;;;;;;5036378;28;20409;-72
2022/11/08 11:24:35;;;;;;;4.03;2.97;;;18.90;99.90;;;;;;5036305;28;20880;-72
2022/11/08 11:27:04;;;;;;;3.00;2.40;;;19.10;99.90;;;;;;5035781;28;20437;-71
2022/11/08 11:29:35;;;;;;;3.17;2.13;;;19.00;99.90;;;;;;5036649;28;20777;-71
2022/11/08 11:32:23;;;;;;;3.67;2.33;;;18.90;99.90;;;;;;5036425;28;20413;-72
2022/11/08 11:34:53;;;;;;;3.20;2.10;;;18.90;99.90;;;;;;5036121;28;20456;-72
2022/11/08 11:37:33;;;;;;;2.60;1.73;;;18.90;99.90;;;;;;5035865;28;20441;-72
2022/11/08 11:40:17;;;;;;;2.20;2.00;;;18.50;99.90;;;;;;5036156;28;20386;-71
2022/11/08 11:43:09;;;;;;;2.63;2.20;;;18.20;99.90;;;;;;5034641;28;20425;-72
2022/11/08 11:45:53;;;;;;;3.10;1.50;;;18.10;99.90;;;;;;5035501;28;20386;-73
2022/11/08 11:48:44;;;;;;;2.90;1.70;;;20.30;99.90;;;;;;5034448;28;20426;-72
2022/11/08 11:51:10;;;;;;;5.43;1.83;;;22.80;95.30;;;;;;5035983;28;20402;-71
2022/11/08 11:53:37;;;;;;;2.70;1.60;;;25.10;92.90;;;;;;5036401;28;20515;-73
2022/11/08 11:56:27;;;;;;;3.07;2.07;;;25.40;91.00;;;;;;5035487;28;20162;-70
2022/11/08 11:59:22;;;;;;;2.27;1.70;;;24.10;88.70;;;;;;5035596;28;20394;-72
2022/11/08 12:02:30;;;;;;;1.90;1.70;;;23.60;90.70;;;;;;5035913;28;20446;-71
2022/11/08 12:05:32;;;;;;;2.20;1.70;;;23.40;91.10;;;;;;5035226;28;20520;-71
2022/11/08 12:08:17;;;;;;;2.80;1.40;;;23.00;90.20;;;;;;5035461;28;20421;-72
2022/11/08 12:10:55;;;;;;;1.60;1.47;;;24.20;87.70;;;;;;5034425;28;20402;-72
2022/11/08 12:13:37;;;;;;;2.83;1.33;;;25.60;84.10;;;;;;5035011;28;20541;-72
2022/11/08 12:16:20;;;;;;;2.60;2.40;;;26.00;81.00;;;;;;5035160;28;20429;-71
2022/11/08 12:19:09;;;;;;;2.47;1.17;;;27.90;75.30;;;;;;5035434;28;20394;-72
2022/11/08 12:21:43;;;;;;;2.40;1.50;;;28.50;67.80;;;;;;5024861;28;20445;-73
2022/11/08 12:24:17;;;;;;;1.87;1.37;;;28.90;65.60;;;;;;5035461;28;20861;-73
2022/11/08 12:27:10;;;;;;;2.13;1.10;;;28.60;62.50;;;;;;5034767;28;20413;-73
2022/11/08 12:30:11;;;;;;;3.73;1.20;;;30.40;59.80;;;;;;5034585;28;20410;-72
2022/11/08 12:33:11;;;;;;;3.00;1.30;;;30.30;56.00;;;;;;5022894;28;20496;-73
2022/11/08 12:36:09;;;;;;;1.97;1.53;;;30.60;56.50;;;;;;5035310;28;20782;-73
2022/11/08 12:38:52;;;;;;;1.93;1.63;;;29.40;55.90;;;;;;5035640;28;20433;-73
2022/11/08 12:42:03;;;;;;;1.53;1.20;;;29.30;58.20;;;;;;5033690;28;20418;-73
2022/11/08 12:44:44;;;;;;;1.50;1.17;;;29.40;54.50;;;;;;5035364;28;20464;-74
2022/11/08 12:47:37;;;;;;;1.40;1.30;;;30.00;52.80;;;;;;5034974;28;20477;-73
2022/11/08 12:50:37;;;;;;;3.87;1.30;;;30.10;54.00;;;;;;5031777;28;20417;-73
2022/11/08 12:53:23;;;;;;;1.83;1.30;;;31.20;51.60;;;;;;5027478;28;20480;-73
2022/11/08 12:55:50;;;;;;;2.10;1.47;;;31.00;51.20;;;;;;5034378;28;20398;-72
2022/11/08 12:58:37;;;;;;;1.60;1.23;;;30.80;51.40;;;;;;5034168;28;20515;-73
2022/11/08 13:01:15;;;;;;;2.13;1.50;;;30.40;51.20;;;;;;5034459;28;20406;-72
2022/11/08 13:03:48;;;;;;;1.70;1.20;;;30.80;49.80;;;;;;5034575;28;20397;-73
2022/11/08 13:06:37;;;;;;;2.47;1.33;;;29.90;50.90;;;;;;5034632;28;20782;-72
2022/11/08 13:09:08;;;;;;;1.67;1.47;;;28.40;53.20;;;;;;5034851;28;20486;-74
2022/11/08 13:11:55;;;;;;;1.50;1.30;;;26.90;56.90;;;;;;5034006;28;20410;-74
2022/11/08 13:14:21;;;;;;;5.07;1.70;;;25.90;58.50;;;;;;5034505;28;20438;-73
2022/11/08 13:17:16;;;;;;;1.90;1.63;;;25.60;61.40;;;;;;5033654;28;20524;-74
2022/11/08 13:19:50;;;;;;;2.80;1.37;;;25.30;61.90;;;;;;5034286;28;20436;-73
2022/11/08 13:22:28;;;;;;;1.73;1.43;;;25.20;64.00;;;;;;5034242;28;20398;-73
2022/11/08 13:24:59;;;;;;;2.27;1.20;;;25.20;64.50;;;;;;5033978;28;20842;-73
2022/11/08 13:27:42;;;;;;;1.50;1.40;;;24.80;63.90;;;;;;5033432;28;20534;-71